sensor_id;sensor_type;location;lat;lon;timestamp;temperature;humidity
12911;DHT22;6523;49.758;6.120;2024-03-06T00:01:42;1.30;99.90
12911;DHT22;6523;49.758;6.120;2024-03-06T00:04:08;1.10;99.90
12911;DHT22;6523;49.758;6.120;2024-03-06T00:06:34;1.00;99.90
12911;DHT22;6523;49.758;6.120;2024-03-06T00:09:00;1.00;99.90
12911;DHT22;6523;49.758;6.120;2024-03-06T00:11:28;1.00;99.90
12911;DHT22;6523;49.758;6.120;2024-03-06T00:13:53;1.20;99.90
12911;DHT22;6523;49.758;6.120;2024-03-06T00:16:19;1.20;99.90
12911;DHT22;6523;49.758;6.120;2024-03-06T00:18:45;1.20;99.90
12911;DHT22;6523;49.758;6.120;2024-03-06T00:21:11;1.20;99.90
12911;DHT22;6523;49.758;6.120;2024-03-06T00:23:37;1.30;99.90
12911;DHT22;6523;49.758;6.120;2024-03-06T00:26:03;1.30;99.90
12911;DHT22;6523;49.758;6.120;2024-03-06T00:28:29;1.30;99.90
12911;DHT22;6523;49.758;6.120;2024-03-06T00:30:55;1.40;99.90
12911;DHT22;6523;49.758;6.120;2024-03-06T00:33:21;1.30;99.90
12911;DHT22;6523;49.758;6.120;2024-03-06T00:35:46;1.50;99.90
12911;DHT22;6523;49.758;6.120;2024-03-06T00:38:12;1.50;99.90
12911;DHT22;6523;49.758;6.120;2024-03-06T00:40:38;1.30;99.90
12911;DHT22;6523;49.758;6.120;2024-03-06T00:43:04;1.10;99.90
12911;DHT22;6523;49.758;6.120;2024-03-06T00:45:30;1.10;99.90
12911;DHT22;6523;49.758;6.120;2024-03-06T00:47:56;1.10;99.90
12911;DHT22;6523;49.758;6.120;2024-03-06T00:50:21;1.20;99.90
12911;DHT22;6523;49.758;6.120;2024-03-06T00:52:47;1.20;99.90
12911;DHT22;6523;49.758;6.120;2024-03-06T00:55:14;1.10;99.90
12911;DHT22;6523;49.758;6.120;2024-03-06T00:57:40;1.20;99.90
12911;DHT22;6523;49.758;6.120;2024-03-06T01:00:06;1.20;99.90
12911;DHT22;6523;49.758;6.120;2024-03-06T01:02:39;1.30;99.90
12911;DHT22;6523;49.758;6.120;2024-03-06T01:05:05;1.40;99.90
12911;DHT22;6523;49.758;6.120;2024-03-06T01:07:32;1.40;99.90
12911;DHT22;6523;49.758;6.120;2024-03-06T01:09:58;1.30;99.90
12911;DHT22;6523;49.758;6.120;2024-03-06T01:12:26;1.00;99.90
12911;DHT22;6523;49.758;6.120;2024-03-06T01:14:52;1.10;99.90
12911;DHT22;6523;49.758;6.120;2024-03-06T01:17:18;1.20;99.90
12911;DHT22;6523;49.758;6.120;2024-03-06T01:19:44;1.20;99.90
12911;DHT22;6523;49.758;6.120;2024-03-06T01:22:10;1.00;99.90
12911;DHT22;6523;49.758;6.120;2024-03-06T01:24:36;0.90;99.90
12911;DHT22;6523;49.758;6.120;2024-03-06T01:27:01;1.00;99.90
12911;DHT22;6523;49.758;6.120;2024-03-06T01:29:31;0.90;99.90
12911;DHT22;6523;49.758;6.120;2024-03-06T01:32:00;0.90;99.90
12911;DHT22;6523;49.758;6.120;2024-03-06T01:34:26;1.00;99.90
12911;DHT22;6523;49.758;6.120;2024-03-06T01:36:52;1.00;99.90
12911;DHT22;6523;49.758;6.120;2024-03-06T01:39:18;1.00;99.90
12911;DHT22;6523;49.758;6.120;2024-03-06T01:41:47;1.00;99.90
12911;DHT22;6523;49.758;6.120;2024-03-06T01:44:14;1.10;99.90
12911;DHT22;6523;49.758;6.120;2024-03-06T01:46:40;1.10;99.90
12911;DHT22;6523;49.758;6.120;2024-03-06T01:49:06;1.10;99.90
12911;DHT22;6523;49.758;6.120;2024-03-06T01:51:32;0.90;99.90
12911;DHT22;6523;49.758;6.120;2024-03-06T01:53:58;0.90;99.90
12911;DHT22;6523;49.758;6.120;2024-03-06T01:56:26;1.00;99.90
12911;DHT22;6523;49.758;6.120;2024-03-06T01:58:53;1.10;99.90
12911;DHT22;6523;49.758;6.120;2024-03-06T02:01:20;1.20;99.90
12911;DHT22;6523;49.758;6.120;2024-03-06T02:03:47;1.30;99.90
12911;DHT22;6523;49.758;6.120;2024-03-06T02:06:14;1.30;99.90
12911;DHT22;6523;49.758;6.120;2024-03-06T02:08:41;1.30;99.90
12911;DHT22;6523;49.758;6.120;2024-03-06T02:11:06;1.30;99.90
12911;DHT22;6523;49.758;6.120;2024-03-06T02:13:33;1.30;99.90
12911;DHT22;6523;49.758;6.120;2024-03-06T02:15:59;1.30;99.90
12911;DHT22;6523;49.758;6.120;2024-03-06T02:18:24;1.20;99.90
12911;DHT22;6523;49.758;6.120;2024-03-06T02:20:50;1.10;99.90
12911;DHT22;6523;49.758;6.120;2024-03-06T02:23:16;1.20;99.90
12911;DHT22;6523;49.758;6.120;2024-03-06T02:25:47;1.40;99.90
12911;DHT22;6523;49.758;6.120;2024-03-06T02:28:13;1.20;99.90
12911;DHT22;6523;49.758;6.120;2024-03-06T02:30:39;1.10;99.90
12911;DHT22;6523;49.758;6.120;2024-03-06T02:33:05;1.20;99.90
12911;DHT22;6523;49.758;6.120;2024-03-06T02:35:35;1.20;99.90
12911;DHT22;6523;49.758;6.120;2024-03-06T02:38:03;1.30;99.90
12911;DHT22;6523;49.758;6.120;2024-03-06T02:40:30;1.30;99.90
12911;DHT22;6523;49.758;6.120;2024-03-06T02:42:55;1.20;99.90
12911;DHT22;6523;49.758;6.120;2024-03-06T02:45:21;1.20;99.90
12911;DHT22;6523;49.758;6.120;2024-03-06T02:47:47;1.40;99.90
12911;DHT22;6523;49.758;6.120;2024-03-06T02:50:13;1.40;99.90
12911;DHT22;6523;49.758;6.120;2024-03-06T02:52:39;1.20;99.90
12911;DHT22;6523;49.758;6.120;2024-03-06T02:55:05;1.20;99.90
12911;DHT22;6523;49.758;6.120;2024-03-06T02:57:31;1.30;99.90
12911;DHT22;6523;49.758;6.120;2024-03-06T02:59:58;1.20;99.90
12911;DHT22;6523;49.758;6.120;2024-03-06T03:02:24;1.40;99.90
12911;DHT22;6523;49.758;6.120;2024-03-06T03:04:50;1.30;99.90
12911;DHT22;6523;49.758;6.120;2024-03-06T03:07:16;1.20;99.90
12911;DHT22;6523;49.758;6.120;2024-03-06T03:09:41;1.20;99.90
12911;DHT22;6523;49.758;6.120;2024-03-06T03:12:07;1.20;99.90
12911;DHT22;6523;49.758;6.120;2024-03-06T03:14:32;1.20;99.90
12911;DHT22;6523;49.758;6.120;2024-03-06T03:17:00;1.20;99.90
12911;DHT22;6523;49.758;6.120;2024-03-06T03:19:26;1.10;99.90
12911;DHT22;6523;49.758;6.120;2024-03-06T03:21:51;1.00;99.90
12911;DHT22;6523;49.758;6.120;2024-03-06T03:24:17;0.90;99.90
12911;DHT22;6523;49.758;6.120;2024-03-06T03:26:45;1.10;99.90
12911;DHT22;6523;49.758;6.120;2024-03-06T03:29:11;1.10;99.90
12911;DHT22;6523;49.758;6.120;2024-03-06T03:31:36;1.10;99.90
12911;DHT22;6523;49.758;6.120;2024-03-06T03:34:05;1.10;99.90
12911;DHT22;6523;49.758;6.120;2024-03-06T03:36:30;1.00;99.90
12911;DHT22;6523;49.758;6.120;2024-03-06T03:38:56;1.10;99.90
12911;DHT22;6523;49.758;6.120;2024-03-06T03:41:22;1.10;99.90
12911;DHT22;6523;49.758;6.120;2024-03-06T03:43:48;1.10;99.90
12911;DHT22;6523;49.758;6.120;2024-03-06T03:46:14;1.00;99.90
12911;DHT22;6523;49.758;6.120;2024-03-06T03:48:40;0.90;99.90
12911;DHT22;6523;49.758;6.120;2024-03-06T03:51:06;1.00;99.90
12911;DHT22;6523;49.758;6.120;2024-03-06T03:53:33;1.00;99.90
12911;DHT22;6523;49.758;6.120;2024-03-06T03:55:59;1.00;99.90
12911;DHT22;6523;49.758;6.120;2024-03-06T03:58:25;1.10;99.90
12911;DHT22;6523;49.758;6.120;2024-03-06T04:00:50;1.00;99.90
12911;DHT22;6523;49.758;6.120;2024-03-06T04:03:20;1.00;99.90
12911;DHT22;6523;49.758;6.120;2024-03-06T04:05:47;1.00;99.90
12911;DHT22;6523;49.758;6.120;2024-03-06T04:08:13;1.00;99.90
12911;DHT22;6523;49.758;6.120;2024-03-06T04:10:39;0.80;99.90
12911;DHT22;6523;49.758;6.120;2024-03-06T04:13:05;0.70;99.90
12911;DHT22;6523;49.758;6.120;2024-03-06T04:15:31;0.70;99.90
12911;DHT22;6523;49.758;6.120;2024-03-06T04:17:57;0.60;99.90
12911;DHT22;6523;49.758;6.120;2024-03-06T04:20:23;0.60;99.90
12911;DHT22;6523;49.758;6.120;2024-03-06T04:22:48;0.60;99.90
12911;DHT22;6523;49.758;6.120;2024-03-06T04:25:16;0.70;99.90
12911;DHT22;6523;49.758;6.120;2024-03-06T04:27:42;0.70;99.90
12911;DHT22;6523;49.758;6.120;2024-03-06T04:30:08;0.70;99.90
12911;DHT22;6523;49.758;6.120;2024-03-06T04:32:34;0.70;99.90
12911;DHT22;6523;49.758;6.120;2024-03-06T04:35:00;0.60;99.90
12911;DHT22;6523;49.758;6.120;2024-03-06T04:37:25;0.70;99.90
12911;DHT22;6523;49.758;6.120;2024-03-06T04:39:52;0.70;99.90
12911;DHT22;6523;49.758;6.120;2024-03-06T04:42:18;0.60;99.90
12911;DHT22;6523;49.758;6.120;2024-03-06T04:44:45;0.60;99.90
12911;DHT22;6523;49.758;6.120;2024-03-06T04:47:11;0.60;99.90
12911;DHT22;6523;49.758;6.120;2024-03-06T04:49:36;0.60;99.90
12911;DHT22;6523;49.758;6.120;2024-03-06T04:52:03;0.50;99.90
12911;DHT22;6523;49.758;6.120;2024-03-06T04:54:29;0.50;99.90
12911;DHT22;6523;49.758;6.120;2024-03-06T04:56:55;0.60;99.90
12911;DHT22;6523;49.758;6.120;2024-03-06T04:59:21;0.60;99.90
12911;DHT22;6523;49.758;6.120;2024-03-06T05:01:47;0.60;99.90
12911;DHT22;6523;49.758;6.120;2024-03-06T05:04:12;0.60;99.90
12911;DHT22;6523;49.758;6.120;2024-03-06T05:06:38;0.60;99.90
12911;DHT22;6523;49.758;6.120;2024-03-06T05:09:04;0.50;99.90
12911;DHT22;6523;49.758;6.120;2024-03-06T05:11:31;0.50;99.90
12911;DHT22;6523;49.758;6.120;2024-03-06T05:14:00;0.50;99.90
12911;DHT22;6523;49.758;6.120;2024-03-06T05:16:26;0.50;99.90
12911;DHT22;6523;49.758;6.120;2024-03-06T05:18:52;0.50;99.90
12911;DHT22;6523;49.758;6.120;2024-03-06T05:21:18;0.60;99.90
12911;DHT22;6523;49.758;6.120;2024-03-06T05:23:44;0.60;99.90
12911;DHT22;6523;49.758;6.120;2024-03-06T05:26:09;0.60;99.90
12911;DHT22;6523;49.758;6.120;2024-03-06T05:28:36;0.50;99.90
12911;DHT22;6523;49.758;6.120;2024-03-06T05:31:15;0.50;99.90
12911;DHT22;6523;49.758;6.120;2024-03-06T05:33:47;0.60;99.90
12911;DHT22;6523;49.758;6.120;2024-03-06T05:36:14;0.50;99.90
12911;DHT22;6523;49.758;6.120;2024-03-06T05:38:40;0.50;99.90
12911;DHT22;6523;49.758;6.120;2024-03-06T05:41:05;0.60;99.90
12911;DHT22;6523;49.758;6.120;2024-03-06T05:43:31;0.60;99.90
12911;DHT22;6523;49.758;6.120;2024-03-06T05:45:56;0.70;99.90
12911;DHT22;6523;49.758;6.120;2024-03-06T05:48:22;0.70;99.90
12911;DHT22;6523;49.758;6.120;2024-03-06T05:50:49;0.60;99.90
12911;DHT22;6523;49.758;6.120;2024-03-06T05:53:15;0.70;99.90
12911;DHT22;6523;49.758;6.120;2024-03-06T05:55:40;0.70;99.90
12911;DHT22;6523;49.758;6.120;2024-03-06T05:58:06;0.70;99.90
12911;DHT22;6523;49.758;6.120;2024-03-06T06:00:31;0.50;99.90
12911;DHT22;6523;49.758;6.120;2024-03-06T06:02:58;0.40;99.90
12911;DHT22;6523;49.758;6.120;2024-03-06T06:05:24;0.50;99.90
12911;DHT22;6523;49.758;6.120;2024-03-06T06:07:51;0.60;99.90
12911;DHT22;6523;49.758;6.120;2024-03-06T06:10:16;0.70;99.90
12911;DHT22;6523;49.758;6.120;2024-03-06T06:12:42;0.60;99.90
12911;DHT22;6523;49.758;6.120;2024-03-06T06:15:08;0.70;99.90
12911;DHT22;6523;49.758;6.120;2024-03-06T06:17:34;0.70;99.90
12911;DHT22;6523;49.758;6.120;2024-03-06T06:20:00;0.70;99.90
12911;DHT22;6523;49.758;6.120;2024-03-06T06:22:29;0.70;99.90
12911;DHT22;6523;49.758;6.120;2024-03-06T06:24:54;0.80;99.90
12911;DHT22;6523;49.758;6.120;2024-03-06T06:27:21;0.80;99.90
12911;DHT22;6523;49.758;6.120;2024-03-06T06:29:47;0.80;99.90
12911;DHT22;6523;49.758;6.120;2024-03-06T06:32:12;0.90;99.90
12911;DHT22;6523;49.758;6.120;2024-03-06T06:34:38;0.90;99.90
12911;DHT22;6523;49.758;6.120;2024-03-06T06:37:03;0.70;99.90
12911;DHT22;6523;49.758;6.120;2024-03-06T06:39:29;0.50;99.90
12911;DHT22;6523;49.758;6.120;2024-03-06T06:41:54;0.70;99.90
12911;DHT22;6523;49.758;6.120;2024-03-06T06:44:20;0.90;99.90
12911;DHT22;6523;49.758;6.120;2024-03-06T06:46:45;0.80;99.90
12911;DHT22;6523;49.758;6.120;2024-03-06T06:49:11;0.60;99.90
12911;DHT22;6523;49.758;6.120;2024-03-06T06:51:37;0.60;99.90
12911;DHT22;6523;49.758;6.120;2024-03-06T06:54:02;0.80;99.90
12911;DHT22;6523;49.758;6.120;2024-03-06T06:56:29;0.70;99.90
12911;DHT22;6523;49.758;6.120;2024-03-06T06:58:55;0.70;99.90
12911;DHT22;6523;49.758;6.120;2024-03-06T07:01:21;0.60;99.90
12911;DHT22;6523;49.758;6.120;2024-03-06T07:03:47;0.70;99.90
12911;DHT22;6523;49.758;6.120;2024-03-06T07:06:13;0.60;99.90
12911;DHT22;6523;49.758;6.120;2024-03-06T07:08:38;0.70;99.90
12911;DHT22;6523;49.758;6.120;2024-03-06T07:11:04;0.60;99.90
12911;DHT22;6523;49.758;6.120;2024-03-06T07:13:30;0.60;99.90
12911;DHT22;6523;49.758;6.120;2024-03-06T07:15:56;0.80;99.90
12911;DHT22;6523;49.758;6.120;2024-03-06T07:18:21;1.10;99.90
12911;DHT22;6523;49.758;6.120;2024-03-06T07:20:47;1.30;99.90
12911;DHT22;6523;49.758;6.120;2024-03-06T07:23:13;1.40;99.90
12911;DHT22;6523;49.758;6.120;2024-03-06T07:25:38;1.40;99.90
12911;DHT22;6523;49.758;6.120;2024-03-06T07:28:05;1.40;99.90
12911;DHT22;6523;49.758;6.120;2024-03-06T07:30:30;1.40;99.90
12911;DHT22;6523;49.758;6.120;2024-03-06T07:32:56;1.60;99.90
12911;DHT22;6523;49.758;6.120;2024-03-06T07:35:23;1.70;99.90
12911;DHT22;6523;49.758;6.120;2024-03-06T07:37:48;1.80;99.90
12911;DHT22;6523;49.758;6.120;2024-03-06T07:40:14;1.40;99.90
12911;DHT22;6523;49.758;6.120;2024-03-06T07:42:39;1.20;99.90
12911;DHT22;6523;49.758;6.120;2024-03-06T07:45:06;1.20;99.90
12911;DHT22;6523;49.758;6.120;2024-03-06T07:47:35;1.20;99.90
12911;DHT22;6523;49.758;6.120;2024-03-06T07:50:04;1.30;99.90
12911;DHT22;6523;49.758;6.120;2024-03-06T07:52:31;1.50;99.90
12911;DHT22;6523;49.758;6.120;2024-03-06T07:54:57;1.40;99.90
12911;DHT22;6523;49.758;6.120;2024-03-06T07:57:23;1.40;99.90
12911;DHT22;6523;49.758;6.120;2024-03-06T07:59:49;1.80;99.90
12911;DHT22;6523;49.758;6.120;2024-03-06T08:02:16;1.80;99.90
12911;DHT22;6523;49.758;6.120;2024-03-06T08:04:42;1.90;99.90
12911;DHT22;6523;49.758;6.120;2024-03-06T08:07:08;1.80;99.90
12911;DHT22;6523;49.758;6.120;2024-03-06T08:09:33;2.00;99.90
12911;DHT22;6523;49.758;6.120;2024-03-06T08:11:59;2.20;99.90
12911;DHT22;6523;49.758;6.120;2024-03-06T08:14:25;2.30;99.90
12911;DHT22;6523;49.758;6.120;2024-03-06T08:16:51;2.40;99.90
12911;DHT22;6523;49.758;6.120;2024-03-06T08:19:16;2.50;99.90
12911;DHT22;6523;49.758;6.120;2024-03-06T08:21:42;2.50;99.90
12911;DHT22;6523;49.758;6.120;2024-03-06T08:24:08;2.10;99.90
12911;DHT22;6523;49.758;6.120;2024-03-06T08:26:33;2.00;99.90
12911;DHT22;6523;49.758;6.120;2024-03-06T08:28:59;2.00;99.90
12911;DHT22;6523;49.758;6.120;2024-03-06T08:31:24;2.30;99.90
12911;DHT22;6523;49.758;6.120;2024-03-06T08:33:51;2.20;99.90
12911;DHT22;6523;49.758;6.120;2024-03-06T08:36:18;2.00;99.90
12911;DHT22;6523;49.758;6.120;2024-03-06T08:38:44;2.40;99.90
12911;DHT22;6523;49.758;6.120;2024-03-06T08:41:10;2.70;99.90
12911;DHT22;6523;49.758;6.120;2024-03-06T08:43:36;3.00;99.90
12911;DHT22;6523;49.758;6.120;2024-03-06T08:46:01;2.90;99.90
12911;DHT22;6523;49.758;6.120;2024-03-06T08:48:27;3.10;99.90
12911;DHT22;6523;49.758;6.120;2024-03-06T08:50:53;3.00;99.90
12911;DHT22;6523;49.758;6.120;2024-03-06T08:53:19;2.90;99.90
12911;DHT22;6523;49.758;6.120;2024-03-06T08:55:45;3.30;99.90
12911;DHT22;6523;49.758;6.120;2024-03-06T08:58:11;3.30;99.90
12911;DHT22;6523;49.758;6.120;2024-03-06T09:00:36;3.30;99.90
12911;DHT22;6523;49.758;6.120;2024-03-06T09:03:02;3.10;99.90
12911;DHT22;6523;49.758;6.120;2024-03-06T09:05:28;3.20;99.90
12911;DHT22;6523;49.758;6.120;2024-03-06T09:07:54;3.00;99.90
12911;DHT22;6523;49.758;6.120;2024-03-06T09:10:19;3.00;99.90
12911;DHT22;6523;49.758;6.120;2024-03-06T09:12:46;3.10;99.90
12911;DHT22;6523;49.758;6.120;2024-03-06T09:15:12;3.30;99.90
12911;DHT22;6523;49.758;6.120;2024-03-06T09:17:38;3.00;99.90
12911;DHT22;6523;49.758;6.120;2024-03-06T09:20:05;3.20;99.90
12911;DHT22;6523;49.758;6.120;2024-03-06T09:22:36;3.50;99.90
12911;DHT22;6523;49.758;6.120;2024-03-06T09:25:02;3.50;99.90
12911;DHT22;6523;49.758;6.120;2024-03-06T09:27:28;3.70;99.90
12911;DHT22;6523;49.758;6.120;2024-03-06T09:29:53;3.70;99.90
12911;DHT22;6523;49.758;6.120;2024-03-06T09:32:19;3.40;99.90
12911;DHT22;6523;49.758;6.120;2024-03-06T09:34:45;3.20;99.90
12911;DHT22;6523;49.758;6.120;2024-03-06T09:37:10;3.20;99.90
12911;DHT22;6523;49.758;6.120;2024-03-06T09:39:36;3.50;99.90
12911;DHT22;6523;49.758;6.120;2024-03-06T09:42:02;3.50;99.90
12911;DHT22;6523;49.758;6.120;2024-03-06T09:44:28;4.00;99.90
12911;DHT22;6523;49.758;6.120;2024-03-06T09:46:54;4.40;99.90
12911;DHT22;6523;49.758;6.120;2024-03-06T09:49:23;4.70;99.90
12911;DHT22;6523;49.758;6.120;2024-03-06T09:51:49;4.60;99.90
12911;DHT22;6523;49.758;6.120;2024-03-06T09:54:19;4.20;99.90
12911;DHT22;6523;49.758;6.120;2024-03-06T09:56:46;4.20;99.90
12911;DHT22;6523;49.758;6.120;2024-03-06T09:59:12;4.40;99.90
12911;DHT22;6523;49.758;6.120;2024-03-06T10:01:56;4.30;99.90
12911;DHT22;6523;49.758;6.120;2024-03-06T10:06:52;4.80;99.90
12911;DHT22;6523;49.758;6.120;2024-03-06T10:09:20;5.00;99.90
12911;DHT22;6523;49.758;6.120;2024-03-06T10:11:46;4.90;99.90
12911;DHT22;6523;49.758;6.120;2024-03-06T10:14:12;5.00;99.90
12911;DHT22;6523;49.758;6.120;2024-03-06T10:16:55;4.60;99.90
12911;DHT22;6523;49.758;6.120;2024-03-06T10:19:24;5.10;99.90
12911;DHT22;6523;49.758;6.120;2024-03-06T10:21:53;5.40;99.90
12911;DHT22;6523;49.758;6.120;2024-03-06T10:24:20;4.90;99.90
12911;DHT22;6523;49.758;6.120;2024-03-06T10:26:46;5.40;99.90
12911;DHT22;6523;49.758;6.120;2024-03-06T10:29:18;5.70;99.90
12911;DHT22;6523;49.758;6.120;2024-03-06T10:31:54;6.00;99.90
12911;DHT22;6523;49.758;6.120;2024-03-06T10:34:24;6.00;99.90
12911;DHT22;6523;49.758;6.120;2024-03-06T10:37:01;5.90;99.90
12911;DHT22;6523;49.758;6.120;2024-03-06T10:39:27;6.00;99.90
12911;DHT22;6523;49.758;6.120;2024-03-06T10:41:56;6.30;99.90
12911;DHT22;6523;49.758;6.120;2024-03-06T10:44:26;6.30;99.90
12911;DHT22;6523;49.758;6.120;2024-03-06T10:47:02;6.20;99.90
12911;DHT22;6523;49.758;6.120;2024-03-06T10:49:29;6.40;99.90
12911;DHT22;6523;49.758;6.120;2024-03-06T10:52:00;6.40;99.90
12911;DHT22;6523;49.758;6.120;2024-03-06T10:54:30;6.30;99.90
12911;DHT22;6523;49.758;6.120;2024-03-06T10:56:56;6.30;99.90
12911;DHT22;6523;49.758;6.120;2024-03-06T10:59:25;6.20;99.90
12911;DHT22;6523;49.758;6.120;2024-03-06T11:01:57;6.10;99.90
12911;DHT22;6523;49.758;6.120;2024-03-06T11:04:27;5.90;99.90
12911;DHT22;6523;49.758;6.120;2024-03-06T11:07:03;6.10;99.90
12911;DHT22;6523;49.758;6.120;2024-03-06T11:09:35;6.30;99.90
12911;DHT22;6523;49.758;6.120;2024-03-06T11:12:02;6.40;99.90
12911;DHT22;6523;49.758;6.120;2024-03-06T11:14:30;6.40;99.90
12911;DHT22;6523;49.758;6.120;2024-03-06T11:17:10;6.00;99.90
12911;DHT22;6523;49.758;6.120;2024-03-06T11:20:17;6.10;99.90
12911;DHT22;6523;49.758;6.120;2024-03-06T11:28:16;7.40;99.90
12911;DHT22;6523;49.758;6.120;2024-03-06T11:30:55;7.90;99.90
12911;DHT22;6523;49.758;6.120;2024-03-06T11:33:21;8.80;99.90
12911;DHT22;6523;49.758;6.120;2024-03-06T11:41:13;8.50;99.90
12911;DHT22;6523;49.758;6.120;2024-03-06T11:43:44;8.40;99.90
12911;DHT22;6523;49.758;6.120;2024-03-06T11:46:10;8.50;99.90
12911;DHT22;6523;49.758;6.120;2024-03-06T11:48:37;8.60;99.90
12911;DHT22;6523;49.758;6.120;2024-03-06T11:51:03;8.40;99.90
12911;DHT22;6523;49.758;6.120;2024-03-06T11:53:30;8.80;99.90
12911;DHT22;6523;49.758;6.120;2024-03-06T11:55:56;9.40;99.90
12911;DHT22;6523;49.758;6.120;2024-03-06T11:58:22;9.20;99.90
12911;DHT22;6523;49.758;6.120;2024-03-06T12:00:48;9.50;99.90
12911;DHT22;6523;49.758;6.120;2024-03-06T12:03:14;10.20;99.90
12911;DHT22;6523;49.758;6.120;2024-03-06T12:05:39;11.30;99.90
12911;DHT22;6523;49.758;6.120;2024-03-06T12:08:06;10.70;99.90
12911;DHT22;6523;49.758;6.120;2024-03-06T12:10:36;10.00;99.90
12911;DHT22;6523;49.758;6.120;2024-03-06T12:13:03;9.30;99.90
12911;DHT22;6523;49.758;6.120;2024-03-06T12:15:29;9.80;99.90
12911;DHT22;6523;49.758;6.120;2024-03-06T12:17:54;9.90;99.90
12911;DHT22;6523;49.758;6.120;2024-03-06T12:20:20;9.90;99.90
12911;DHT22;6523;49.758;6.120;2024-03-06T12:22:53;9.90;99.90
12911;DHT22;6523;49.758;6.120;2024-03-06T12:25:26;9.80;99.90
12911;DHT22;6523;49.758;6.120;2024-03-06T12:27:53;9.90;99.90
12911;DHT22;6523;49.758;6.120;2024-03-06T12:30:21;9.10;99.90
12911;DHT22;6523;49.758;6.120;2024-03-06T12:33:00;8.90;99.90
12911;DHT22;6523;49.758;6.120;2024-03-06T12:35:30;9.20;99.90
12911;DHT22;6523;49.758;6.120;2024-03-06T12:37:56;9.30;99.90
12911;DHT22;6523;49.758;6.120;2024-03-06T12:40:22;9.60;99.90
12911;DHT22;6523;49.758;6.120;2024-03-06T12:42:48;9.90;99.90
12911;DHT22;6523;49.758;6.120;2024-03-06T12:45:16;9.90;99.90
12911;DHT22;6523;49.758;6.120;2024-03-06T12:47:46;10.00;99.90
12911;DHT22;6523;49.758;6.120;2024-03-06T12:50:13;10.30;99.90
12911;DHT22;6523;49.758;6.120;2024-03-06T12:52:40;10.40;99.90
12911;DHT22;6523;49.758;6.120;2024-03-06T12:55:06;10.40;99.90
12911;DHT22;6523;49.758;6.120;2024-03-06T12:57:32;10.70;99.90
12911;DHT22;6523;49.758;6.120;2024-03-06T12:59:58;11.20;99.90
12911;DHT22;6523;49.758;6.120;2024-03-06T13:02:24;10.60;99.90
12911;DHT22;6523;49.758;6.120;2024-03-06T13:04:50;10.50;99.90
12911;DHT22;6523;49.758;6.120;2024-03-06T13:07:15;10.90;99.90
12911;DHT22;6523;49.758;6.120;2024-03-06T13:09:41;11.60;99.90
12911;DHT22;6523;49.758;6.120;2024-03-06T13:12:07;11.00;99.90
12911;DHT22;6523;49.758;6.120;2024-03-06T13:14:33;11.90;99.90
12911;DHT22;6523;49.758;6.120;2024-03-06T13:16:59;12.90;99.90
12911;DHT22;6523;49.758;6.120;2024-03-06T13:19:25;12.10;99.90
12911;DHT22;6523;49.758;6.120;2024-03-06T13:21:51;11.70;99.90
12911;DHT22;6523;49.758;6.120;2024-03-06T13:24:18;12.80;99.90
12911;DHT22;6523;49.758;6.120;2024-03-06T13:26:48;14.00;99.90
12911;DHT22;6523;49.758;6.120;2024-03-06T13:29:14;13.90;99.90
12911;DHT22;6523;49.758;6.120;2024-03-06T13:31:39;13.40;99.90
12911;DHT22;6523;49.758;6.120;2024-03-06T13:34:05;13.00;99.90
12911;DHT22;6523;49.758;6.120;2024-03-06T13:36:31;13.50;99.90
12911;DHT22;6523;49.758;6.120;2024-03-06T13:38:56;12.70;99.90
12911;DHT22;6523;49.758;6.120;2024-03-06T13:41:22;13.20;99.90
12911;DHT22;6523;49.758;6.120;2024-03-06T13:43:48;14.20;99.90
12911;DHT22;6523;49.758;6.120;2024-03-06T13:46:14;14.40;99.90
12911;DHT22;6523;49.758;6.120;2024-03-06T13:48:40;13.80;99.90
12911;DHT22;6523;49.758;6.120;2024-03-06T13:51:05;13.60;99.90
12911;DHT22;6523;49.758;6.120;2024-03-06T13:53:31;12.70;99.90
12911;DHT22;6523;49.758;6.120;2024-03-06T13:55:57;11.60;99.90
12911;DHT22;6523;49.758;6.120;2024-03-06T13:58:23;11.80;99.90
12911;DHT22;6523;49.758;6.120;2024-03-06T14:00:49;11.50;99.90
12911;DHT22;6523;49.758;6.120;2024-03-06T14:03:14;10.90;99.90
12911;DHT22;6523;49.758;6.120;2024-03-06T14:05:40;10.90;99.90
12911;DHT22;6523;49.758;6.120;2024-03-06T14:08:06;10.80;99.90
12911;DHT22;6523;49.758;6.120;2024-03-06T14:10:31;10.60;99.90
12911;DHT22;6523;49.758;6.120;2024-03-06T14:13:02;10.50;99.90
12911;DHT22;6523;49.758;6.120;2024-03-06T14:15:28;10.30;99.90
12911;DHT22;6523;49.758;6.120;2024-03-06T14:17:54;10.40;99.90
12911;DHT22;6523;49.758;6.120;2024-03-06T14:20:20;10.30;99.90
12911;DHT22;6523;49.758;6.120;2024-03-06T14:22:46;10.10;99.90
12911;DHT22;6523;49.758;6.120;2024-03-06T14:25:12;10.10;99.90
12911;DHT22;6523;49.758;6.120;2024-03-06T14:27:38;10.20;99.90
12911;DHT22;6523;49.758;6.120;2024-03-06T14:30:05;10.20;99.90
12911;DHT22;6523;49.758;6.120;2024-03-06T14:32:32;10.00;99.90
12911;DHT22;6523;49.758;6.120;2024-03-06T14:34:58;10.30;99.90
12911;DHT22;6523;49.758;6.120;2024-03-06T14:37:23;10.40;99.90
12911;DHT22;6523;49.758;6.120;2024-03-06T14:39:49;10.20;99.90
12911;DHT22;6523;49.758;6.120;2024-03-06T14:42:16;10.30;99.90
12911;DHT22;6523;49.758;6.120;2024-03-06T14:44:42;10.70;99.90
12911;DHT22;6523;49.758;6.120;2024-03-06T14:47:09;10.60;99.90
12911;DHT22;6523;49.758;6.120;2024-03-06T14:49:35;10.70;99.90
12911;DHT22;6523;49.758;6.120;2024-03-06T14:52:01;10.50;99.90
12911;DHT22;6523;49.758;6.120;2024-03-06T14:54:28;10.50;99.90
12911;DHT22;6523;49.758;6.120;2024-03-06T14:56:53;10.50;99.90
12911;DHT22;6523;49.758;6.120;2024-03-06T14:59:20;10.40;99.90
12911;DHT22;6523;49.758;6.120;2024-03-06T15:01:46;10.50;99.90
12911;DHT22;6523;49.758;6.120;2024-03-06T15:04:13;11.10;99.90
12911;DHT22;6523;49.758;6.120;2024-03-06T15:06:39;12.40;99.90
12911;DHT22;6523;49.758;6.120;2024-03-06T15:09:05;13.10;99.90
12911;DHT22;6523;49.758;6.120;2024-03-06T15:11:31;13.90;99.90
12911;DHT22;6523;49.758;6.120;2024-03-06T15:14:01;14.20;99.90
12911;DHT22;6523;49.758;6.120;2024-03-06T15:16:27;14.60;99.90
12911;DHT22;6523;49.758;6.120;2024-03-06T15:18:52;14.00;99.90
12911;DHT22;6523;49.758;6.120;2024-03-06T15:21:20;14.00;99.90
12911;DHT22;6523;49.758;6.120;2024-03-06T15:23:46;13.20;99.90
12911;DHT22;6523;49.758;6.120;2024-03-06T15:26:15;12.80;99.90
12911;DHT22;6523;49.758;6.120;2024-03-06T15:28:41;12.20;99.90
12911;DHT22;6523;49.758;6.120;2024-03-06T15:31:07;12.60;99.90
12911;DHT22;6523;49.758;6.120;2024-03-06T15:33:33;12.80;99.90
12911;DHT22;6523;49.758;6.120;2024-03-06T15:35:59;12.80;99.90
12911;DHT22;6523;49.758;6.120;2024-03-06T15:38:25;12.50;99.90
12911;DHT22;6523;49.758;6.120;2024-03-06T15:40:52;12.80;99.90
12911;DHT22;6523;49.758;6.120;2024-03-06T15:43:18;13.50;99.90
12911;DHT22;6523;49.758;6.120;2024-03-06T15:45:43;13.10;99.90
12911;DHT22;6523;49.758;6.120;2024-03-06T15:48:09;12.90;99.90
12911;DHT22;6523;49.758;6.120;2024-03-06T15:50:43;12.60;99.90
12911;DHT22;6523;49.758;6.120;2024-03-06T15:53:08;12.80;99.90
12911;DHT22;6523;49.758;6.120;2024-03-06T15:55:35;12.40;96.30
12911;DHT22;6523;49.758;6.120;2024-03-06T15:58:02;12.70;96.10
12911;DHT22;6523;49.758;6.120;2024-03-06T16:00:28;12.90;99.60
12911;DHT22;6523;49.758;6.120;2024-03-06T16:02:54;12.40;93.80
12911;DHT22;6523;49.758;6.120;2024-03-06T16:05:19;11.70;91.40
12911;DHT22;6523;49.758;6.120;2024-03-06T16:07:45;11.80;95.60